Time;durP1;ratioP1;P1;durP2;ratioP2;P2;SDS_P1;SDS_P2;PMS_P1;PMS_P2;Temp;Humidity;BMP_temperature;BMP_pressure;BME280_temperature;BME280_humidity;BME280_pressure;Samples;Min_cycle;Max_cycle;Signal;HPM_P1;HPM_P2
2022/10/04 00:01:46;;;;;;;4.10;3.38;;;9.80;99.90;;;;;;5056865;28;20245;-60
2022/10/04 00:04:18;;;;;;;5.68;3.42;;;9.80;99.90;;;;;;5054580;28;20193;-61
2022/10/04 00:06:49;;;;;;;5.47;3.60;;;9.80;99.90;;;;;;5054995;28;20383;-60
2022/10/04 00:09:22;;;;;;;9.23;4.10;;;9.80;99.90;;;;;;5054755;28;20194;-61
2022/10/04 00:11:52;;;;;;;13.77;4.00;;;9.80;99.90;;;;;;5054442;28;20278;-60
2022/10/04 00:14:23;;;;;;;9.63;3.30;;;9.90;99.90;;;;;;5054476;28;20209;-61
2022/10/04 00:16:50;;;;;;;5.43;3.10;;;9.90;99.90;;;;;;5054913;28;20193;-60
2022/10/04 00:19:41;;;;;;;7.50;3.70;;;9.90;99.90;;;;;;5054469;28;20201;-61
2022/10/04 00:22:19;;;;;;;6.18;3.40;;;9.90;99.90;;;;;;5053547;28;20254;-61
2022/10/04 00:25:19;;;;;;;4.80;3.28;;;9.90;99.90;;;;;;5052917;28;20687;-61
2022/10/04 00:28:28;;;;;;;7.53;2.67;;;10.00;99.90;;;;;;5057401;28;20194;-61
2022/10/04 00:31:17;;;;;;;3.23;2.80;;;10.00;99.90;;;;;;5056918;28;20252;-61
2022/10/04 00:33:45;;;;;;;5.43;3.30;;;9.90;99.90;;;;;;5051519;28;20452;-60
2022/10/04 00:36:32;;;;;;;5.95;3.58;;;10.00;99.90;;;;;;5057071;28;20228;-61
2022/10/04 00:39:04;;;;;;;9.07;3.53;;;10.00;99.90;;;;;;5043501;28;20201;-60
2022/10/04 00:41:38;;;;;;;4.55;3.22;;;10.00;99.90;;;;;;5056726;28;20232;-61
2022/10/04 00:44:15;;;;;;;6.50;2.80;;;10.00;99.90;;;;;;5056756;28;20660;-61
2022/10/04 00:46:45;;;;;;;4.60;2.97;;;10.00;99.90;;;;;;5057713;28;20192;-61
2022/10/04 00:49:13;;;;;;;6.78;3.05;;;10.00;99.90;;;;;;5058420;28;20502;-61
2022/10/04 00:51:43;;;;;;;4.87;3.03;;;10.00;99.90;;;;;;5063276;28;20222;-61
2022/10/04 00:54:16;;;;;;;7.07;2.80;;;10.00;99.90;;;;;;5062776;28;20452;-61
2022/10/04 00:56:47;;;;;;;4.85;2.92;;;10.00;99.90;;;;;;5064083;28;20428;-61
2022/10/04 00:59:31;;;;;;;5.20;3.03;;;10.00;99.90;;;;;;5058508;28;20209;-61
2022/10/04 01:02:02;;;;;;;5.05;2.78;;;10.00;99.90;;;;;;5059978;28;20226;-61
2022/10/04 01:04:40;;;;;;;4.07;2.87;;;10.00;99.90;;;;;;5060557;28;20198;-61
2022/10/04 01:07:09;;;;;;;3.63;3.00;;;10.00;99.90;;;;;;5062129;28;20438;-60
2022/10/04 01:09:41;;;;;;;7.70;2.95;;;10.00;99.90;;;;;;5060058;28;20213;-61
2022/10/04 01:12:14;;;;;;;2.58;2.30;;;10.00;99.90;;;;;;5056756;28;20222;-61
2022/10/04 01:14:51;;;;;;;3.10;2.80;;;10.00;99.90;;;;;;5056325;28;20209;-62
2022/10/04 01:17:18;;;;;;;10.87;3.17;;;10.00;99.90;;;;;;5056311;28;20192;-61
2022/10/04 01:19:51;;;;;;;5.20;2.40;;;10.10;99.90;;;;;;5056582;28;20452;-61
2022/10/04 01:22:41;;;;;;;8.47;3.27;;;10.10;99.90;;;;;;5056564;28;20264;-61
2022/10/04 01:25:08;;;;;;;4.25;2.88;;;10.20;99.90;;;;;;5056548;28;20451;-61
2022/10/04 01:27:40;;;;;;;3.00;2.80;;;10.20;99.90;;;;;;5057105;28;20225;-61
2022/10/04 01:30:10;;;;;;;4.03;2.87;;;10.20;99.90;;;;;;5059264;28;20421;-61
2022/10/04 01:32:38;;;;;;;4.32;2.33;;;10.20;99.90;;;;;;5057275;28;20842;-61
2022/10/04 01:35:06;;;;;;;5.07;3.00;;;10.20;99.90;;;;;;5057270;28;20229;-60
2022/10/04 01:37:35;;;;;;;4.60;3.17;;;10.20;99.90;;;;;;5056565;28;20455;-61
2022/10/04 01:40:02;;;;;;;4.93;2.47;;;10.20;99.90;;;;;;5056935;28;20444;-61
2022/10/04 01:42:33;;;;;;;3.83;2.50;;;10.20;99.90;;;;;;5056707;28;20460;-61
2022/10/04 01:45:07;;;;;;;7.95;2.90;;;10.20;99.90;;;;;;5057057;28;20456;-60
2022/10/04 01:47:38;;;;;;;4.00;2.67;;;10.30;99.90;;;;;;5060569;28;20190;-60
2022/10/04 01:50:11;;;;;;;3.97;2.77;;;10.30;99.90;;;;;;5057069;28;20818;-61
2022/10/04 01:52:42;;;;;;;6.47;2.83;;;10.30;99.90;;;;;;5058782;28;20435;-61
2022/10/04 01:55:15;;;;;;;8.60;2.60;;;10.30;99.90;;;;;;5057061;28;20464;-61
2022/10/04 01:57:47;;;;;;;9.80;3.80;;;10.30;99.90;;;;;;5055679;28;20432;-61
2022/10/04 02:00:15;;;;;;;5.17;2.80;;;10.30;99.90;;;;;;5055837;28;20490;-60
2022/10/04 02:02:49;;;;;;;4.40;2.33;;;10.30;99.90;;;;;;5056166;28;20455;-61
2022/10/04 02:05:24;;;;;;;8.35;2.70;;;10.30;99.90;;;;;;5056503;28;20420;-61
2022/10/04 02:07:54;;;;;;;8.23;3.17;;;10.30;99.90;;;;;;5055728;28;20599;-61
2022/10/04 02:10:22;;;;;;;7.17;2.93;;;10.30;99.90;;;;;;5055570;28;20455;-61
2022/10/04 02:12:53;;;;;;;5.93;2.37;;;10.30;99.90;;;;;;5055334;28;20826;-61
2022/10/04 02:15:23;;;;;;;5.73;2.40;;;10.30;99.90;;;;;;5055109;28;20464;-61
2022/10/04 02:17:51;;;;;;;6.05;2.95;;;10.30;99.90;;;;;;5055159;28;20906;-60
2022/10/04 02:20:21;;;;;;;3.20;2.33;;;10.40;99.90;;;;;;5054648;28;20202;-60
2022/10/04 02:22:51;;;;;;;5.17;2.70;;;10.40;99.90;;;;;;5054686;28;20451;-61
2022/10/04 02:25:21;;;;;;;8.07;3.00;;;10.30;99.90;;;;;;5054638;28;20425;-61
2022/10/04 02:27:51;;;;;;;4.85;2.88;;;10.40;99.90;;;;;;5055181;28;20444;-61
2022/10/04 02:30:18;;;;;;;4.80;2.60;;;10.40;99.90;;;;;;5055383;28;20540;-61
2022/10/04 02:32:56;;;;;;;5.20;2.80;;;10.40;99.90;;;;;;5054482;28;20202;-61
2022/10/04 02:35:24;;;;;;;6.40;2.80;;;10.40;99.90;;;;;;5054717;28;20513;-61
2022/10/04 02:37:59;;;;;;;4.23;3.17;;;10.40;99.90;;;;;;5054596;28;20490;-61
2022/10/04 02:40:32;;;;;;;2.87;2.50;;;10.40;99.90;;;;;;5054642;28;20431;-61
2022/10/04 02:43:02;;;;;;;6.47;3.00;;;10.40;99.90;;;;;;5055154;28;20864;-61
2022/10/04 02:45:38;;;;;;;5.73;3.33;;;10.40;99.90;;;;;;5054906;28;20436;-61
2022/10/04 02:48:18;;;;;;;7.95;3.80;;;10.40;99.90;;;;;;5054955;28;20821;-61
2022/10/04 02:50:48;;;;;;;3.33;2.80;;;10.40;99.90;;;;;;5054081;28;20233;-61
2022/10/04 02:53:22;;;;;;;5.67;3.10;;;10.30;99.90;;;;;;5054388;28;20424;-61
2022/10/04 02:55:50;;;;;;;3.73;2.50;;;10.30;99.90;;;;;;5054233;28;20464;-60
2022/10/04 02:58:21;;;;;;;9.80;3.07;;;10.30;99.90;;;;;;5054259;28;20494;-61
2022/10/04 03:00:50;;;;;;;5.20;3.00;;;10.30;99.90;;;;;;5054284;28;20582;-59
2022/10/04 03:03:24;;;;;;;3.80;2.60;;;10.30;99.90;;;;;;5054175;28;20820;-60
2022/10/04 03:05:59;;;;;;;5.27;2.67;;;10.30;99.90;;;;;;5053760;28;20420;-60
2022/10/04 03:08:27;;;;;;;4.57;2.60;;;10.30;99.90;;;;;;5054130;28;20424;-60
2022/10/04 03:10:56;;;;;;;4.53;2.87;;;10.30;99.90;;;;;;5053590;28;20228;-60
2022/10/04 03:13:23;;;;;;;3.63;2.87;;;10.30;99.90;;;;;;5054213;28;20784;-60
2022/10/04 03:15:50;;;;;;;5.90;3.07;;;10.30;99.90;;;;;;5053696;28;20487;-59
2022/10/04 03:18:19;;;;;;;3.90;2.40;;;10.30;99.90;;;;;;5053954;28;20451;-59
2022/10/04 03:20:46;;;;;;;7.37;2.70;;;10.30;99.90;;;;;;5053558;28;20221;-59
2022/10/04 03:23:17;;;;;;;4.73;2.73;;;10.30;99.90;;;;;;5053415;28;20448;-60
2022/10/04 03:25:51;;;;;;;9.27;3.00;;;10.40;99.90;;;;;;5053680;28;20420;-60
2022/10/04 03:28:19;;;;;;;4.60;2.90;;;10.40;99.90;;;;;;5053604;28;20432;-60
2022/10/04 03:30:48;;;;;;;5.40;2.60;;;10.40;99.90;;;;;;5054748;28;20479;-61
2022/10/04 03:33:21;;;;;;;11.53;3.60;;;10.40;99.90;;;;;;5053710;28;20451;-60
2022/10/04 03:35:52;;;;;;;5.23;2.90;;;10.40;99.90;;;;;;5053719;28;20459;-60
2022/10/04 03:38:20;;;;;;;9.13;3.17;;;10.40;99.90;;;;;;5053584;28;20988;-61
2022/10/04 03:40:52;;;;;;;5.25;2.55;;;10.40;99.90;;;;;;5053778;28;20468;-61
2022/10/04 03:43:24;;;;;;;4.00;2.40;;;10.40;99.90;;;;;;5053498;28;20182;-61
2022/10/04 03:45:52;;;;;;;5.37;2.90;;;10.40;99.90;;;;;;5053380;28;20428;-61
2022/10/04 03:48:28;;;;;;;8.93;2.97;;;10.40;99.90;;;;;;5053390;28;20444;-61
2022/10/04 03:50:55;;;;;;;8.30;2.80;;;10.50;99.90;;;;;;5053084;28;20467;-61
2022/10/04 03:53:34;;;;;;;4.95;3.25;;;10.50;99.90;;;;;;5053403;28;20448;-61
2022/10/04 03:56:03;;;;;;;6.97;3.30;;;10.50;99.90;;;;;;5053533;28;20212;-61
2022/10/04 03:58:31;;;;;;;4.10;2.40;;;10.50;99.90;;;;;;5053329;28;20444;-61
2022/10/04 04:01:20;;;;;;;5.63;3.00;;;10.50;99.90;;;;;;5052908;28;20460;-61
2022/10/04 04:03:57;;;;;;;5.47;2.35;;;10.50;99.90;;;;;;5053223;28;20308;-61
2022/10/04 04:06:25;;;;;;;8.23;3.00;;;10.50;99.90;;;;;;5052345;28;20194;-61
2022/10/04 04:10:24;;;;;;;7.73;2.23;;;10.50;99.90;;;;;;5108542;27;1297751;-61
2022/10/04 04:12:56;;;;;;;8.50;2.70;;;10.50;99.90;;;;;;5119852;28;20437;-61
2022/10/04 04:15:28;;;;;;;6.67;2.47;;;10.40;99.90;;;;;;5113457;28;20430;-61
2022/10/04 04:17:56;;;;;;;3.63;2.20;;;10.40;99.90;;;;;;5113060;28;20440;-61
2022/10/04 04:20:26;;;;;;;6.43;3.57;;;10.40;99.90;;;;;;5124957;27;20457;-62
2022/10/04 04:23:01;;;;;;;6.73;3.10;;;10.30;99.90;;;;;;5132009;28;20873;-62
2022/10/04 04:25:32;;;;;;;4.00;2.90;;;10.30;99.90;;;;;;5113782;28;20460;-61
2022/10/04 04:28:12;;;;;;;11.20;3.77;;;10.20;99.90;;;;;;5124345;28;20429;-61
2022/10/04 04:30:45;;;;;;;6.13;3.92;;;10.20;99.90;;;;;;5122487;27;20471;-60
2022/10/04 04:33:20;;;;;;;6.90;2.90;;;10.20;99.90;;;;;;5125212;28;20192;-60
2022/10/04 04:35:47;;;;;;;8.88;3.05;;;10.20;99.90;;;;;;5130888;28;20909;-61
2022/10/04 04:38:19;;;;;;;3.85;2.70;;;10.20;99.90;;;;;;5131190;28;20210;-61
2022/10/04 04:40:47;;;;;;;7.57;3.10;;;10.20;99.90;;;;;;5131153;27;20258;-61
2022/10/04 04:43:19;;;;;;;4.22;2.95;;;10.20;99.90;;;;;;5130643;28;20956;-61
2022/10/04 04:45:48;;;;;;;3.90;2.87;;;10.20;99.90;;;;;;5130737;28;20206;-61
2022/10/04 04:48:17;;;;;;;9.10;3.20;;;10.20;99.90;;;;;;5131129;28;20539;-61
2022/10/04 04:50:51;;;;;;;4.77;2.87;;;10.20;99.90;;;;;;5126929;27;20461;-60
2022/10/04 04:53:22;;;;;;;7.67;3.23;;;10.20;99.90;;;;;;5119405;28;20440;-61
2022/10/04 04:55:52;;;;;;;6.97;3.13;;;10.20;99.90;;;;;;5126802;28;20433;-62
2022/10/04 04:58:23;;;;;;;4.22;3.00;;;10.20;99.90;;;;;;5119685;28;20472;-61
2022/10/04 05:00:57;;;;;;;6.93;3.30;;;10.20;99.90;;;;;;5123800;28;20704;-61
2022/10/04 05:03:24;;;;;;;6.97;3.30;;;10.20;99.90;;;;;;5120609;28;20928;-60
2022/10/04 05:05:53;;;;;;;7.60;3.58;;;10.20;99.90;;;;;;5123211;28;20227;-61
2022/10/04 05:08:23;;;;;;;7.15;3.45;;;10.20;99.90;;;;;;5122589;28;20194;-61
2022/10/04 05:11:00;;;;;;;4.67;2.93;;;10.20;99.90;;;;;;5122939;28;20215;-62
2022/10/04 05:13:32;;;;;;;12.03;4.23;;;10.20;99.90;;;;;;5111351;28;20452;-61
2022/10/04 05:16:00;;;;;;;7.13;4.00;;;10.20;99.90;;;;;;5127803;28;20452;-61
2022/10/04 05:18:30;;;;;;;5.50;3.17;;;10.20;99.90;;;;;;5126496;28;20455;-61
2022/10/04 05:21:03;;;;;;;7.83;3.20;;;10.20;99.90;;;;;;5109911;28;20461;-61
2022/10/04 05:23:30;;;;;;;6.57;3.20;;;10.20;99.90;;;;;;5107410;28;20435;-61
2022/10/04 05:26:01;;;;;;;10.00;3.33;;;10.30;99.90;;;;;;5096257;28;20549;-61
2022/10/04 05:28:29;;;;;;;5.60;3.47;;;10.20;99.90;;;;;;5102085;28;20559;-61
2022/10/04 05:31:12;;;;;;;6.60;3.30;;;10.30;99.90;;;;;;5109111;28;20470;-61
2022/10/04 05:33:46;;;;;;;8.03;3.70;;;10.30;99.90;;;;;;5109867;28;20440;-61
2022/10/04 05:36:45;;;;;;;5.93;3.23;;;10.30;99.90;;;;;;5116566;28;20437;-61
2022/10/04 05:39:20;;;;;;;3.83;3.10;;;10.30;99.90;;;;;;5116070;28;20480;-61
2022/10/04 05:41:56;;;;;;;10.27;3.57;;;10.30;99.90;;;;;;5116926;28;20468;-62
2022/10/04 05:44:26;;;;;;;6.20;3.63;;;10.30;99.90;;;;;;5116824;28;20430;-62
2022/10/04 05:46:55;;;;;;;8.40;3.38;;;10.40;99.90;;;;;;5116957;28;20502;-62
2022/10/04 05:49:24;;;;;;;6.25;3.00;;;10.30;99.90;;;;;;5114512;28;20230;-61
2022/10/04 05:51:54;;;;;;;8.30;3.47;;;10.40;99.90;;;;;;5109695;28;20209;-61
2022/10/04 05:54:23;;;;;;;7.00;3.30;;;10.40;99.90;;;;;;5109898;28;20441;-60
2022/10/04 05:57:35;;;;;;;8.93;3.63;;;10.40;99.90;;;;;;5101762;28;20506;-61
2022/10/04 06:00:11;;;;;;;7.73;3.37;;;10.40;99.90;;;;;;5106290;28;20440;-61
2022/10/04 06:03:08;;;;;;;8.03;3.80;;;10.50;99.90;;;;;;5103061;28;20442;-61
2022/10/04 06:05:44;;;;;;;7.23;3.67;;;10.50;99.90;;;;;;5097458;28;20444;-62
2022/10/04 06:08:22;;;;;;;6.87;3.43;;;10.50;99.90;;;;;;5116925;28;20418;-63
2022/10/04 06:11:15;;;;;;;4.60;3.00;;;10.60;99.90;;;;;;5114961;28;20492;-63
2022/10/04 06:14:02;;;;;;;5.33;3.80;;;10.60;99.90;;;;;;5116784;28;20917;-62
2022/10/04 06:16:43;;;;;;;6.97;3.80;;;10.60;99.90;;;;;;5116068;28;20426;-62
2022/10/04 06:19:27;;;;;;;5.43;2.87;;;10.70;99.90;;;;;;5115447;28;20841;-62
2022/10/04 06:22:08;;;;;;;4.53;3.20;;;10.70;99.90;;;;;;5115048;28;20995;-62
2022/10/04 06:24:38;;;;;;;4.60;3.30;;;10.80;99.90;;;;;;5115317;28;20905;-62
2022/10/04 06:27:14;;;;;;;6.90;3.70;;;10.90;99.90;;;;;;5097290;28;20446;-63
2022/10/04 06:29:50;;;;;;;8.53;3.90;;;10.90;99.90;;;;;;5112092;28;20995;-62
2022/10/04 06:32:41;;;;;;;9.03;3.60;;;11.00;99.90;;;;;;5108272;28;21002;-62
2022/10/04 06:35:41;;;;;;;8.13;3.90;;;11.10;99.90;;;;;;5115401;28;20430;-61
2022/10/04 06:38:37;;;;;;;6.57;3.60;;;11.20;99.90;;;;;;5115685;28;20488;-62
2022/10/04 06:41:23;;;;;;;4.00;3.43;;;11.30;99.90;;;;;;5115317;28;20473;-62
2022/10/04 06:44:08;;;;;;;7.73;2.90;;;11.30;99.90;;;;;;5114150;28;20810;-63
2022/10/04 06:46:44;;;;;;;5.90;3.33;;;11.40;99.90;;;;;;5115388;28;20485;-62
2022/10/04 06:49:31;;;;;;;4.23;2.80;;;11.50;99.90;;;;;;5115803;28;20468;-62
2022/10/04 06:52:34;;;;;;;5.07;3.60;;;11.50;99.90;;;;;;5106284;28;20984;-63
2022/10/04 06:55:42;;;;;;;3.77;3.40;;;11.60;99.90;;;;;;5095099;28;20422;-62
2022/10/04 06:58:45;;;;;;;6.23;3.23;;;11.70;99.90;;;;;;5096933;28;20438;-62
2022/10/04 07:01:23;;;;;;;7.93;3.80;;;11.80;99.90;;;;;;5080807;28;20481;-64
2022/10/04 07:03:56;;;;;;;7.80;3.37;;;12.00;99.90;;;;;;5096634;28;20429;-62
2022/10/04 07:06:27;;;;;;;5.83;3.10;;;12.10;99.90;;;;;;5095946;28;20940;-63
2022/10/04 07:08:58;;;;;;;7.87;4.00;;;12.20;99.90;;;;;;5095862;28;20468;-62
2022/10/04 07:11:31;;;;;;;6.77;2.97;;;12.30;99.90;;;;;;5095746;28;20476;-62
2022/10/04 07:14:04;;;;;;;8.50;3.33;;;12.40;99.90;;;;;;5111590;28;20460;-62
2022/10/04 07:16:37;;;;;;;8.03;3.30;;;12.50;99.90;;;;;;5116585;28;20795;-63
2022/10/04 07:19:23;;;;;;;6.23;3.57;;;12.70;99.90;;;;;;5117098;28;20430;-62
2022/10/04 07:22:04;;;;;;;4.90;2.80;;;12.80;99.90;;;;;;5116032;28;20568;-63
2022/10/04 07:24:46;;;;;;;8.43;3.30;;;12.90;99.90;;;;;;5114903;28;20447;-63
2022/10/04 07:27:18;;;;;;;6.70;3.63;;;13.00;99.90;;;;;;5114857;28;20764;-63
2022/10/04 07:29:45;;;;;;;7.50;3.30;;;13.10;99.90;;;;;;5114867;28;20976;-63
2022/10/04 07:32:18;;;;;;;8.53;3.83;;;13.10;99.90;;;;;;5115176;28;20465;-62
2022/10/04 07:34:52;;;;;;;5.83;3.63;;;13.20;99.90;;;;;;5114810;28;20473;-60
2022/10/04 07:37:20;;;;;;;6.87;3.43;;;13.30;99.90;;;;;;5115633;28;20428;-61
2022/10/04 07:39:55;;;;;;;5.63;3.07;;;13.40;99.90;;;;;;5115087;28;20437;-62
2022/10/04 07:42:31;;;;;;;5.03;3.30;;;13.60;99.90;;;;;;5114816;28;20820;-62
2022/10/04 07:45:12;;;;;;;5.30;3.20;;;13.70;99.90;;;;;;5114751;28;20897;-62
2022/10/04 07:47:40;;;;;;;4.20;2.73;;;13.80;99.90;;;;;;5116179;28;20426;-62
2022/10/04 07:50:23;;;;;;;7.00;3.20;;;13.80;99.90;;;;;;5115078;28;20607;-63
2022/10/04 07:53:05;;;;;;;5.43;3.50;;;13.90;99.90;;;;;;5115826;28;20426;-62
2022/10/04 07:55:41;;;;;;;4.83;2.70;;;13.90;99.90;;;;;;5115406;28;20422;-63
2022/10/04 07:58:33;;;;;;;6.33;3.10;;;13.90;99.90;;;;;;5114864;28;20486;-62
2022/10/04 08:01:04;;;;;;;6.27;3.30;;;13.90;99.90;;;;;;5114367;28;20988;-62
2022/10/04 08:03:57;;;;;;;7.10;2.80;;;13.90;99.90;;;;;;5114856;28;20434;-63
2022/10/04 08:06:34;;;;;;;6.77;3.10;;;13.80;99.90;;;;;;5114958;28;20475;-63
2022/10/04 08:09:29;;;;;;;6.07;2.70;;;13.80;99.90;;;;;;5114781;28;20453;-63
2022/10/04 08:12:06;;;;;;;5.80;2.87;;;13.80;99.90;;;;;;5109588;28;20468;-62
2022/10/04 08:14:49;;;;;;;4.60;3.47;;;13.80;99.90;;;;;;5115190;28;20418;-62
2022/10/04 08:17:31;;;;;;;8.00;3.13;;;13.80;99.90;;;;;;5118631;28;20437;-62
2022/10/04 08:20:08;;;;;;;4.87;3.80;;;13.80;99.90;;;;;;5121620;28;20418;-62
2022/10/04 08:22:52;;;;;;;6.50;3.20;;;13.80;99.90;;;;;;5122005;28;20428;-63
2022/10/04 08:25:26;;;;;;;7.30;4.43;;;13.80;99.90;;;;;;5122714;28;20425;-63
2022/10/04 08:31:15;;;;;;;9.80;3.20;;;14.00;99.90;;;;;;5115426;28;20468;-62
2022/10/04 08:33:54;;;;;;;6.63;3.40;;;14.30;99.90;;;;;;5114589;28;20450;-62
2022/10/04 08:36:35;;;;;;;7.07;3.00;;;14.60;99.90;;;;;;5115655;28;20425;-62
2022/10/04 08:39:07;;;;;;;9.87;4.07;;;14.70;99.90;;;;;;5122556;28;20433;-63
2022/10/04 08:42:05;;;;;;;10.90;3.53;;;14.90;99.90;;;;;;5114292;28;20544;-63
2022/10/04 08:45:05;;;;;;;5.43;3.17;;;15.00;99.90;;;;;;5113788;28;20426;-62
2022/10/04 08:48:05;;;;;;;11.33;3.80;;;15.20;99.90;;;;;;5114756;28;20504;-62
2022/10/04 08:50:55;;;;;;;5.43;2.80;;;15.40;99.90;;;;;;5114971;28;20540;-62
2022/10/04 08:54:21;;;;;;;4.60;3.60;;;15.40;99.90;;;;;;5117851;28;20893;-63
2022/10/04 08:57:05;;;;;;;6.10;3.27;;;15.50;99.90;;;;;;5129176;28;20447;-63
2022/10/04 08:59:56;;;;;;;9.73;3.50;;;15.40;99.90;;;;;;5131304;28;20421;-64
2022/10/04 09:03:05;;;;;;;8.27;3.40;;;15.30;99.90;;;;;;5129986;28;20804;-63
2022/10/04 09:05:53;;;;;;;6.53;3.73;;;15.30;99.90;;;;;;5125807;28;20428;-62
2022/10/04 09:08:56;;;;;;;6.00;3.30;;;15.30;99.90;;;;;;5124693;28;20430;-62
2022/10/04 09:11:40;;;;;;;5.73;2.90;;;15.40;99.90;;;;;;5113432;28;20504;-63
2022/10/04 09:14:37;;;;;;;7.90;4.30;;;15.50;99.90;;;;;;5119130;28;20435;-63
2022/10/04 09:17:19;;;;;;;6.07;3.30;;;15.60;99.90;;;;;;5113225;28;20842;-63
2022/10/04 09:19:56;;;;;;;6.60;3.20;;;15.70;99.90;;;;;;5105590;28;20427;-62
2022/10/04 09:22:40;;;;;;;7.43;2.73;;;15.80;99.90;;;;;;5117138;28;20464;-62
2022/10/04 09:25:43;;;;;;;8.47;3.93;;;15.90;99.90;;;;;;5106471;28;20514;-63
2022/10/04 09:28:29;;;;;;;7.07;3.07;;;16.00;99.90;;;;;;5120884;28;20433;-63
2022/10/04 09:34:07;;;;;;;4.13;2.90;;;16.00;99.90;;;;;;5086110;22;20494;-66
2022/10/04 09:36:57;;;;;;;6.70;2.93;;;16.10;99.90;;;;;;5059103;28;20526;-62
2022/10/04 09:40:05;;;;;;;6.47;3.97;;;16.20;99.90;;;;;;5071653;28;20439;-60
2022/10/04 09:42:56;;;;;;;5.00;3.10;;;16.30;99.90;;;;;;5058641;28;21064;-61
2022/10/04 09:45:47;;;;;;;4.60;2.57;;;16.40;99.80;;;;;;5075662;28;20439;-61
2022/10/04 09:48:25;;;;;;;4.20;2.50;;;16.60;99.50;;;;;;5075749;28;20439;-62
2022/10/04 09:51:30;;;;;;;6.20;2.80;;;16.70;99.00;;;;;;5075282;28;21017;-61
2022/10/04 09:54:20;;;;;;;5.90;3.17;;;16.80;98.60;;;;;;5077209;28;20435;-61
2022/10/04 09:56:58;;;;;;;6.83;3.40;;;17.00;97.90;;;;;;5075330;28;20416;-61
2022/10/04 10:00:08;;;;;;;6.13;2.90;;;17.20;97.40;;;;;;5075480;28;20427;-61
2022/10/04 10:03:12;;;;;;;4.43;2.90;;;17.40;96.40;;;;;;5066861;28;20836;-63
2022/10/04 10:05:56;;;;;;;5.00;2.40;;;17.40;95.20;;;;;;5079501;28;20534;-61
2022/10/04 10:08:30;;;;;;;7.30;3.23;;;17.40;94.70;;;;;;5076304;28;20455;-62
2022/10/04 10:14:34;;;;;;;6.00;2.60;;;17.20;94.40;;;;;;5080194;28;20458;-62
2022/10/04 10:17:14;;;;;;;4.90;2.90;;;16.90;94.30;;;;;;5077945;28;20530;-62
2022/10/04 10:20:09;;;;;;;4.10;3.70;;;16.70;94.40;;;;;;5076645;28;20519;-61
2022/10/04 10:23:16;;;;;;;6.30;2.80;;;16.50;94.50;;;;;;5075759;28;21058;-62
2022/10/04 10:26:05;;;;;;;8.60;3.60;;;16.40;94.60;;;;;;5056795;28;20490;-63
2022/10/04 10:28:51;;;;;;;8.63;3.67;;;16.40;94.60;;;;;;5075997;28;20427;-62
2022/10/04 10:31:42;;;;;;;4.23;2.37;;;16.60;94.20;;;;;;5076604;28;20487;-62
2022/10/04 10:34:34;;;;;;;5.53;3.00;;;16.70;93.90;;;;;;5077962;28;20509;-62
2022/10/04 10:37:08;;;;;;;8.27;3.80;;;16.90;93.70;;;;;;5079899;28;20435;-62
2022/10/04 10:40:32;;;;;;;5.77;2.47;;;17.20;93.30;;;;;;5076913;28;20506;-61
2022/10/04 10:43:19;;;;;;;4.30;2.40;;;17.30;92.50;;;;;;5033671;28;20473;-61
2022/10/04 10:46:03;;;;;;;5.43;2.73;;;17.40;92.00;;;;;;5036706;28;20429;-62
2022/10/04 10:48:47;;;;;;;6.30;2.50;;;17.50;91.60;;;;;;5070884;28;21033;-62
2022/10/04 10:51:19;;;;;;;3.87;2.27;;;17.60;91.10;;;;;;5075941;28;20479;-61
2022/10/04 10:54:15;;;;;;;7.37;2.97;;;17.80;90.70;;;;;;5075498;28;20455;-60
2022/10/04 10:56:55;;;;;;;6.07;2.40;;;17.90;90.20;;;;;;5077208;28;20885;-62
2022/10/04 10:59:53;;;;;;;10.13;2.43;;;18.00;89.10;;;;;;5077000;28;20439;-61
2022/10/04 11:02:54;;;;;;;2.57;1.60;;;18.00;88.00;;;;;;5075018;28;20561;-62
2022/10/04 11:05:36;;;;;;;4.03;2.50;;;18.10;86.10;;;;;;5076853;28;20724;-62
2022/10/04 11:08:16;;;;;;;5.63;2.23;;;18.20;85.00;;;;;;5075836;28;20435;-61
2022/10/04 11:11:02;;;;;;;3.37;2.20;;;18.20;84.50;;;;;;5078472;28;20828;-63
2022/10/04 11:13:52;;;;;;;3.03;2.30;;;18.20;83.50;;;;;;5076263;28;20486;-62
2022/10/04 11:17:02;;;;;;;7.87;2.50;;;18.30;82.30;;;;;;5074818;28;20485;-59
2022/10/04 11:20:03;;;;;;;4.30;2.70;;;18.30;80.50;;;;;;5032851;28;20426;-63
2022/10/04 11:23:18;;;;;;;12.57;2.60;;;18.30;79.90;;;;;;5077335;28;20467;-61
2022/10/04 11:26:21;;;;;;;2.87;2.33;;;18.40;78.70;;;;;;5032422;28;20918;-62
2022/10/04 11:28:59;;;;;;;7.50;2.50;;;18.50;78.30;;;;;;5074316;28;20446;-62
2022/10/04 11:32:19;;;;;;;3.50;2.67;;;18.50;78.20;;;;;;5074826;28;20494;-62
2022/10/04 11:35:23;;;;;;;3.77;2.57;;;18.60;78.50;;;;;;5000513;28;20452;-63
2022/10/04 11:38:03;;;;;;;4.43;2.30;;;18.70;78.30;;;;;;5031765;28;20433;-61
2022/10/04 11:40:43;;;;;;;4.70;2.33;;;18.70;76.80;;;;;;5071079;28;20439;-62
2022/10/04 11:44:02;;;;;;;4.27;3.00;;;18.80;76.20;;;;;;5074742;28;20462;-63
2022/10/04 11:46:38;;;;;;;4.90;3.93;;;18.80;75.50;;;;;;5044811;28;20451;-62
2022/10/04 11:49:55;;;;;;;6.20;3.50;;;18.90;75.00;;;;;;5074016;28;20431;-62
2022/10/04 11:53:02;;;;;;;7.40;2.60;;;18.90;73.90;;;;;;5071825;28;20491;-64
2022/10/04 11:56:20;;;;;;;8.90;3.30;;;19.00;72.70;;;;;;5074133;28;20439;-62
2022/10/04 11:59:10;;;;;;;4.33;3.27;;;19.00;71.70;;;;;;5032187;28;20433;-62
2022/10/04 12:01:58;;;;;;;4.13;1.90;;;19.00;71.20;;;;;;5032041;28;20479;-62
2022/10/04 12:04:52;;;;;;;4.70;2.50;;;19.00;70.40;;;;;;5062203;28;20549;-63
2022/10/04 12:07:33;;;;;;;5.30;2.47;;;18.90;69.60;;;;;;5073670;28;20824;-61
2022/10/04 12:10:09;;;;;;;4.77;2.70;;;18.80;69.50;;;;;;5074131;28;20428;-62
2022/10/04 12:13:08;;;;;;;4.47;2.53;;;18.90;69.50;;;;;;5073728;28;20467;-61
2022/10/04 12:15:53;;;;;;;3.10;2.03;;;18.90;69.10;;;;;;5073251;28;20432;-60
2022/10/04 12:19:06;;;;;;;4.93;2.90;;;18.90;68.40;;;;;;5068711;28;20432;-61
2022/10/04 12:21:56;;;;;;;4.77;2.40;;;18.90;68.20;;;;;;5033365;28;20511;-60
2022/10/04 12:24:56;;;;;;;4.30;2.53;;;18.90;68.70;;;;;;5032658;28;20941;-61
2022/10/04 12:27:45;;;;;;;4.67;2.53;;;19.00;67.90;;;;;;5012217;28;20455;-61
2022/10/04 12:30:20;;;;;;;4.27;2.50;;;19.00;67.80;;;;;;5053589;28;20428;-62
2022/10/04 12:33:00;;;;;;;5.27;2.87;;;19.00;67.80;;;;;;5057968;28;20479;-60
2022/10/04 12:35:40;;;;;;;5.13;2.70;;;19.00;67.50;;;;;;5077290;28;20518;-59
2022/10/04 12:38:37;;;;;;;7.70;2.77;;;19.00;66.90;;;;;;5077631;28;20843;-60
2022/10/04 12:41:11;;;;;;;4.50;2.20;;;18.90;67.10;;;;;;5056480;28;20451;-60
2022/10/04 12:43:49;;;;;;;3.43;2.10;;;18.90;66.70;;;;;;5059171;28;20819;-61
2022/10/04 12:46:28;;;;;;;3.10;2.67;;;18.90;66.50;;;;;;5059173;28;20424;-60
2022/10/04 12:49:06;;;;;;;3.20;2.20;;;18.90;66.10;;;;;;5057743;28;20423;-59
2022/10/04 12:51:48;;;;;;;5.17;2.70;;;18.90;66.00;;;;;;5057443;28;20487;-60
2022/10/04 12:54:27;;;;;;;3.73;2.10;;;18.90;66.00;;;;;;5058277;28;20511;-61
2022/10/04 12:57:05;;;;;;;4.27;2.40;;;19.00;65.70;;;;;;5059052;28;20805;-61
2022/10/04 12:59:57;;;;;;;6.90;2.40;;;18.90;65.40;;;;;;5065106;28;20447;-60
2022/10/04 13:02:38;;;;;;;3.40;2.80;;;18.90;65.60;;;;;;5063548;28;20471;-61
2022/10/04 13:05:13;;;;;;;4.50;3.10;;;18.90;65.80;;;;;;5061320;28;20836;-62
2022/10/04 13:08:02;;;;;;;4.00;2.50;;;19.00;66.00;;;;;;5067284;28;20431;-61
2022/10/04 13:10:43;;;;;;;4.57;2.40;;;19.10;66.20;;;;;;5081048;28;20423;-62
2022/10/04 13:13:44;;;;;;;4.53;2.77;;;19.10;66.40;;;;;;5080527;28;20490;-62
2022/10/04 13:16:21;;;;;;;3.40;2.40;;;19.10;66.50;;;;;;5074306;28;20453;-62
2022/10/04 13:18:56;;;;;;;3.87;3.07;;;19.10;66.80;;;;;;5059590;28;20457;-62
2022/10/04 13:21:47;;;;;;;6.17;2.73;;;19.10;66.80;;;;;;5058121;28;20420;-62
2022/10/04 13:24:23;;;;;;;4.80;2.80;;;19.00;66.70;;;;;;5057423;28;20417;-61
2022/10/04 13:26:59;;;;;;;3.37;2.60;;;19.00;67.00;;;;;;5056627;28;20911;-61
2022/10/04 13:29:32;;;;;;;4.83;3.00;;;19.10;67.40;;;;;;5056734;28;20436;-63
2022/10/04 13:32:05;;;;;;;3.23;2.30;;;19.10;67.00;;;;;;5056291;28;20515;-62
2022/10/04 13:34:40;;;;;;;3.90;2.80;;;19.20;66.80;;;;;;5057095;28;20436;-62
2022/10/04 13:37:24;;;;;;;3.93;3.03;;;19.20;66.40;;;;;;5056693;28;20472;-62
2022/10/04 13:40:20;;;;;;;6.90;2.73;;;19.20;66.00;;;;;;5056948;28;20429;-62
2022/10/04 13:43:15;;;;;;;3.53;2.43;;;19.20;65.90;;;;;;5054841;28;20499;-61
2022/10/04 13:45:54;;;;;;;4.57;2.90;;;19.20;65.80;;;;;;5056598;28;20439;-61
2022/10/04 13:48:30;;;;;;;9.03;2.90;;;19.20;65.70;;;;;;5055975;28;20432;-61
2022/10/04 13:51:18;;;;;;;5.70;3.30;;;19.20;65.50;;;;;;5056879;28;20447;-63
2022/10/04 13:57:18;;;;;;;5.37;2.70;;;19.10;65.80;;;;;;5057426;28;20408;-63
2022/10/04 13:59:51;;;;;;;5.83;3.13;;;19.00;65.60;;;;;;5061580;28;20807;-64
2022/10/04 14:02:54;;;;;;;5.00;2.60;;;19.00;65.30;;;;;;5058694;28;20555;-65
2022/10/04 14:05:56;;;;;;;7.27;5.73;;;18.90;65.40;;;;;;5060671;28;20436;-65
2022/10/04 14:09:04;;;;;;;3.47;3.17;;;18.80;65.80;;;;;;5056543;28;20555;-64
2022/10/04 14:11:57;;;;;;;5.37;2.63;;;18.80;66.30;;;;;;5033404;28;20483;-63